createdAt,value
2023-02-05T00:00:00.684Z,1000.5
2023-02-05T00:10:00.570Z,1000.7
2023-02-05T00:20:00.615Z,1000.8
2023-02-05T00:30:00.591Z,1000.9
2023-02-05T00:40:00.555Z,1001.0
2023-02-05T00:50:00.554Z,1001.0
2023-02-05T01:00:00.555Z,1001.0
2023-02-05T01:10:00.563Z,1001.0
2023-02-05T01:20:00.582Z,1001.0
2023-02-05T01:30:00.797Z,1000.9
2023-02-05T01:40:00.841Z,1001.2
2023-02-05T01:50:00.858Z,1001.0
2023-02-05T02:00:00.869Z,1001.0
2023-02-05T02:10:00.918Z,1001.0
2023-02-05T02:20:00.871Z,1001.1
2023-02-05T02:30:00.885Z,1001.2
2023-02-05T02:40:00.676Z,1001.3
2023-02-05T02:50:00.552Z,1001.3
2023-02-05T03:00:00.626Z,1001.4
2023-02-05T03:10:00.564Z,1001.4
2023-02-05T03:20:01.107Z,1001.5
2023-02-05T03:30:00.574Z,1001.7
2023-02-05T03:40:00.571Z,1001.8
2023-02-05T03:50:00.567Z,1001.8
2023-02-05T04:00:00.681Z,1001.9
2023-02-05T04:10:00.906Z,1002.0
2023-02-05T04:20:00.799Z,1002.1
2023-02-05T04:30:00.582Z,1002.2
2023-02-05T04:40:00.608Z,1002.3
2023-02-05T04:50:00.557Z,1002.4
2023-02-05T05:00:00.890Z,1002.6
2023-02-05T05:10:00.580Z,1002.6
2023-02-05T05:20:00.810Z,1002.8
2023-02-05T05:30:00.553Z,1002.8
2023-02-05T05:40:00.608Z,1002.9
2023-02-05T05:50:00.586Z,1003.2
2023-02-05T06:00:00.560Z,1003.3
2023-02-05T06:10:00.806Z,1003.5
2023-02-05T06:20:00.567Z,1003.4
2023-02-05T06:30:00.615Z,1003.4
2023-02-05T06:40:00.607Z,1003.4
2023-02-05T06:50:00.569Z,1003.6
2023-02-05T07:00:00.692Z,1003.4
2023-02-05T07:10:00.795Z,1003.4
2023-02-05T07:20:01.029Z,1003.5
2023-02-05T07:30:00.626Z,1003.5
2023-02-05T07:40:00.562Z,1003.5
2023-02-05T07:50:00.559Z,1003.6
2023-02-05T08:00:00.625Z,1003.5
2023-02-05T08:10:00.548Z,1003.6
2023-02-05T08:20:00.550Z,1003.6
2023-02-05T08:30:00.692Z,1003.7
2023-02-05T08:40:00.553Z,1003.8
2023-02-05T08:50:00.630Z,1003.7
2023-02-05T09:00:00.621Z,1003.6
2023-02-05T09:10:00.893Z,1003.7
2023-02-05T09:20:00.894Z,1003.6
2023-02-05T09:30:01.144Z,1003.8
2023-02-05T09:40:23.015Z,1003.7
2023-02-05T09:50:00.962Z,1003.6
2023-02-05T10:00:01.084Z,1003.7
2023-02-05T10:10:01.131Z,1003.6
2023-02-05T10:20:00.791Z,1003.4
2023-02-05T10:30:00.673Z,1003.5
2023-02-05T10:40:00.577Z,1003.5
2023-02-05T10:50:00.583Z,1003.3
2023-02-05T11:00:00.754Z,1003.2
2023-02-05T11:10:00.575Z,1003.2
2023-02-05T11:20:00.585Z,1003.2
2023-02-05T11:30:00.808Z,1003.1
2023-02-05T11:40:00.847Z,1003.0
2023-02-05T11:50:00.972Z,1002.9
2023-02-05T12:00:01.178Z,1002.8
2023-02-05T12:10:01.050Z,1002.6
2023-02-05T12:20:00.948Z,1002.5
2023-02-05T12:30:00.689Z,1002.5
2023-02-05T12:40:00.555Z,1002.4
2023-02-05T12:50:00.565Z,1002.4
2023-02-05T13:00:00.562Z,1002.2
2023-02-05T13:10:01.441Z,1002.2
2023-02-05T13:20:00.605Z,1002.2
2023-02-05T13:30:00.764Z,1002.2
2023-02-05T13:40:00.939Z,1002.1
2023-02-05T13:50:00.970Z,1002.2
2023-02-05T14:00:01.011Z,1002.4
2023-02-05T14:10:00.893Z,1002.3
2023-02-05T14:20:00.957Z,1002.3
2023-02-05T14:30:00.951Z,1002.3
2023-02-05T14:40:00.651Z,1002.3
2023-02-05T14:50:00.558Z,1002.3
2023-02-05T15:00:00.629Z,1002.3
2023-02-05T15:10:00.655Z,1002.5
2023-02-05T15:20:00.558Z,1002.5
2023-02-05T15:30:00.585Z,1002.4
2023-02-05T15:40:00.559Z,1002.5
2023-02-05T15:50:00.577Z,1002.6
2023-02-05T16:00:00.628Z,1002.7
2023-02-05T16:10:00.639Z,1002.8
2023-02-05T16:20:00.819Z,1002.9
2023-02-05T16:30:01.059Z,1002.9
2023-02-05T16:40:00.863Z,1002.9
2023-02-05T16:50:00.643Z,1002.9
2023-02-05T17:00:00.812Z,1003.0
2023-02-05T17:10:00.572Z,1003.2
2023-02-05T17:20:00.594Z,1003.3
2023-02-05T17:30:00.630Z,1003.3
2023-02-05T17:40:01.053Z,1003.3
2023-02-05T17:50:00.571Z,1003.4
2023-02-05T18:00:00.597Z,1003.3
2023-02-05T18:10:00.744Z,1003.4
2023-02-05T18:20:00.730Z,1003.6
2023-02-05T18:30:00.882Z,1003.6
2023-02-05T18:40:00.728Z,1003.7
2023-02-05T18:50:00.764Z,1003.8
2023-02-05T19:00:00.873Z,1004.2
2023-02-05T19:10:00.778Z,1004.4
2023-02-05T19:20:00.577Z,1004.5
2023-02-05T19:30:00.594Z,1004.5
2023-02-05T19:40:00.608Z,1004.6
2023-02-05T19:50:00.578Z,1004.7
2023-02-05T20:00:00.633Z,1004.7
2023-02-05T20:10:00.569Z,1004.6
2023-02-05T20:20:12.376Z,1004.8
2023-02-05T20:30:00.608Z,1004.9
2023-02-05T20:40:00.561Z,1004.9
2023-02-05T20:50:00.567Z,1005.0
2023-02-05T21:00:01.006Z,1005.0
2023-02-05T21:10:02.298Z,1005.1
2023-02-05T21:20:00.875Z,1005.1
2023-02-05T21:30:00.915Z,1005.2
2023-02-05T21:40:08.654Z,1005.3
2023-02-05T21:50:00.976Z,1005.5
2023-02-05T22:00:00.680Z,1005.7
2023-02-05T22:10:00.616Z,1005.7
2023-02-05T22:20:00.604Z,1005.9
2023-02-05T22:30:00.586Z,1006.0
2023-02-05T22:40:00.561Z,1005.9
2023-02-05T22:50:00.610Z,1006.0
2023-02-05T23:00:00.566Z,1006.0
2023-02-05T23:10:00.612Z,1006.1
2023-02-05T23:20:00.579Z,1006.1
2023-02-05T23:30:00.588Z,1006.2
2023-02-05T23:40:00.609Z,1006.2
2023-02-05T23:50:01.021Z,1006.2
